Time;durP1;ratioP1;P1;durP2;ratioP2;P2;SDS_P1;SDS_P2;PMS_P1;PMS_P2;Temp;Humidity;BMP_temperature;BMP_pressure;BME280_temperature;BME280_humidity;BME280_pressure;Samples;Min_cycle;Max_cycle;Signal;HPM_P1;HPM_P2
2022/01/08 00:01:55;;;;;;;0.73;0.73;;;2.90;99.90;;;;;;4974546;28;20580;-82
2022/01/08 00:04:21;;;;;;;2.17;1.43;;;2.80;99.90;;;;;;4974929;28;20222;-82
2022/01/08 00:06:46;;;;;;;0.87;0.63;;;2.80;99.90;;;;;;4973663;28;20176;-83
2022/01/08 00:09:12;;;;;;;6.37;1.50;;;2.90;99.90;;;;;;4967568;28;20188;-81
2022/01/08 00:11:41;;;;;;;0.90;0.80;;;2.70;99.90;;;;;;4969765;28;24039;-82
2022/01/08 00:14:09;;;;;;;2.13;1.13;;;2.80;99.90;;;;;;4964598;28;21013;-82
2022/01/08 00:16:35;;;;;;;0.70;0.70;;;2.80;99.90;;;;;;4973602;28;20179;-82
2022/01/08 00:19:00;;;;;;;0.80;0.80;;;2.90;99.90;;;;;;4972762;28;20192;-84
2022/01/08 00:21:26;;;;;;;0.70;0.70;;;2.90;99.90;;;;;;4969274;28;20188;-81
2022/01/08 00:23:51;;;;;;;3.20;1.20;;;2.90;99.90;;;;;;4973189;28;20540;-81
2022/01/08 00:26:17;;;;;;;11.70;1.60;;;2.90;99.90;;;;;;4970862;28;20183;-82
2022/01/08 00:28:42;;;;;;;2.80;0.90;;;2.90;99.90;;;;;;4976879;28;20664;-81
2022/01/08 00:31:10;;;;;;;0.67;0.60;;;3.00;99.90;;;;;;4972079;28;20779;-82
2022/01/08 00:33:39;;;;;;;0.70;0.70;;;3.00;99.90;;;;;;4971207;28;20759;-82
2022/01/08 00:36:06;;;;;;;1.35;0.80;;;3.00;99.90;;;;;;4968444;28;20183;-79
2022/01/08 00:38:32;;;;;;;3.55;0.90;;;3.00;99.90;;;;;;4969790;28;20188;-79
2022/01/08 00:40:58;;;;;;;3.60;1.00;;;3.00;99.90;;;;;;4969554;28;20195;-78
2022/01/08 00:43:23;;;;;;;2.23;1.20;;;3.00;99.90;;;;;;4967929;28;20463;-80
2022/01/08 00:45:49;;;;;;;2.07;0.90;;;3.10;99.90;;;;;;4967704;28;20249;-82
2022/01/08 00:48:14;;;;;;;6.70;1.20;;;3.10;99.90;;;;;;4968434;28;20450;-78
2022/01/08 00:50:40;;;;;;;3.40;0.90;;;3.00;99.90;;;;;;4969651;28;20250;-80
2022/01/08 00:53:06;;;;;;;1.53;0.93;;;3.00;99.90;;;;;;4969345;28;20207;-81
2022/01/08 00:55:31;;;;;;;1.47;1.37;;;3.00;99.90;;;;;;4961747;28;20219;-81
2022/01/08 00:57:57;;;;;;;1.57;1.10;;;3.00;99.90;;;;;;4965955;28;21808;-82
2022/01/08 01:00:22;;;;;;;1.97;0.70;;;3.00;99.90;;;;;;4966822;28;20743;-85
2022/01/08 01:02:48;;;;;;;11.30;1.40;;;;;;;;;;4966395;28;20185;-87
2022/01/08 01:05:14;;;;;;;2.40;1.23;;;3.00;99.90;;;;;;4971126;28;20213;-85
2022/01/08 01:07:40;;;;;;;2.60;0.70;;;;;;;;;;4990568;28;20540;-85
2022/01/08 01:10:07;;;;;;;4.43;1.10;;;3.10;99.90;;;;;;4974766;28;20783;-86
2022/01/08 01:12:33;;;;;;;2.25;0.95;;;3.10;99.90;;;;;;4973816;28;21001;-83
2022/01/08 01:14:59;;;;;;;0.60;0.60;;;3.10;99.90;;;;;;4970267;28;20261;-82
2022/01/08 01:17:25;;;;;;;1.03;0.70;;;3.10;99.90;;;;;;4961683;28;20862;-83
2022/01/08 01:19:51;;;;;;;5.10;1.30;;;3.20;99.90;;;;;;4968459;28;20219;-83
2022/01/08 01:22:19;;;;;;;1.10;1.00;;;3.20;99.90;;;;;;4961639;28;21046;-83
2022/01/08 01:24:47;;;;;;;2.10;1.00;;;3.10;99.90;;;;;;4979324;28;20465;-85
2022/01/08 01:27:52;;;;;;;1.13;0.90;;;3.10;99.90;;;;;;4959810;28;20240;-82
2022/01/08 01:30:15;;;;;;;4.07;1.80;;;3.00;99.90;;;;;;4967379;28;20176;-85
2022/01/08 01:41:13;;;;;;;0.80;0.70;;;3.10;99.90;;;;;;4968223;28;20195;-83
2022/01/08 01:49:08;;;;;;;1.98;1.20;;;3.20;99.90;;;;;;4976886;28;20189;-83
2022/01/08 01:51:34;;;;;;;1.97;1.10;;;;;;;;;;4973024;28;20214;-85
2022/01/08 01:53:59;;;;;;;1.73;0.90;;;3.30;99.90;;;;;;4972782;28;20227;-87
2022/01/08 01:56:25;;;;;;;1.33;0.53;;;3.30;99.90;;;;;;4971910;28;20203;-86
2022/01/08 01:58:51;;;;;;;1.53;0.60;;;3.20;99.90;;;;;;4969077;28;20231;-86
2022/01/08 02:01:17;;;;;;;0.80;0.80;;;3.30;99.90;;;;;;4968322;28;20191;-85
2022/01/08 02:03:43;;;;;;;0.85;0.65;;;3.20;99.90;;;;;;4967454;28;20455;-86
2022/01/08 02:06:09;;;;;;;4.18;0.80;;;3.20;99.90;;;;;;4979556;28;20661;-85
2022/01/08 02:08:37;;;;;;;1.35;0.63;;;3.20;99.90;;;;;;4968300;28;20247;-85
2022/01/08 02:11:03;;;;;;;1.70;0.63;;;3.10;99.90;;;;;;4968123;28;20692;-85
2022/01/08 02:13:29;;;;;;;0.75;0.70;;;3.10;99.90;;;;;;4964429;28;20206;-86
2022/01/08 02:15:56;;;;;;;4.20;0.73;;;3.10;99.90;;;;;;4967714;28;20266;-87
2022/01/08 02:18:25;;;;;;;3.25;1.02;;;3.00;99.90;;;;;;4967125;28;20192;-84
2022/01/08 02:20:55;;;;;;;1.60;1.17;;;3.00;99.90;;;;;;4967653;28;20230;-87
2022/01/08 02:23:22;;;;;;;1.52;0.80;;;3.00;99.90;;;;;;4957867;28;20585;-85
2022/01/08 02:25:48;;;;;;;2.53;1.23;;;3.00;99.90;;;;;;4961268;28;20208;-85
2022/01/08 02:28:14;;;;;;;1.80;1.23;;;2.90;99.90;;;;;;4959929;28;20188;-83
2022/01/08 02:30:39;;;;;;;1.20;1.10;;;2.80;99.90;;;;;;4960799;28;20200;-82
2022/01/08 02:33:05;;;;;;;2.30;1.23;;;;;;;;;;4967009;28;20188;-84
2022/01/08 02:35:31;;;;;;;3.13;1.57;;;2.50;99.90;;;;;;4959220;28;20645;-84
2022/01/08 02:37:57;;;;;;;2.63;1.20;;;2.40;99.90;;;;;;4984798;28;20438;-82
2022/01/08 02:40:23;;;;;;;4.00;1.80;;;;;;;;;;4967827;28;20446;-86
2022/01/08 02:43:00;;;;;;;5.03;1.50;;;2.30;99.90;;;;;;4963983;28;20556;-83
2022/01/08 02:45:26;;;;;;;1.60;0.95;;;2.30;99.90;;;;;;4968994;28;20183;-84
2022/01/08 02:47:56;;;;;;;1.33;0.80;;;2.30;99.90;;;;;;4970614;28;20180;-83
2022/01/08 02:50:23;;;;;;;2.35;1.25;;;2.30;99.90;;;;;;4968681;28;21517;-84
2022/01/08 02:52:49;;;;;;;1.27;1.15;;;2.40;99.90;;;;;;4974175;28;20187;-84
2022/01/08 02:55:17;;;;;;;2.92;1.92;;;2.40;99.90;;;;;;4971937;28;20548;-81
2022/01/08 02:57:43;;;;;;;2.08;1.88;;;2.40;99.90;;;;;;4972392;28;20191;-82
2022/01/08 03:00:12;;;;;;;1.45;0.95;;;2.50;99.90;;;;;;4973252;28;20180;-82
2022/01/08 03:02:45;;;;;;;2.83;1.73;;;2.50;99.90;;;;;;4969199;28;20198;-84
2022/01/08 03:05:12;;;;;;;2.13;1.15;;;2.40;99.90;;;;;;4971773;28;20999;-84
2022/01/08 03:07:38;;;;;;;1.25;1.15;;;2.50;99.90;;;;;;4970270;28;20179;-85
2022/01/08 03:10:08;;;;;;;3.60;1.70;;;2.50;99.90;;;;;;4975180;28;20185;-86
2022/01/08 03:12:38;;;;;;;1.17;1.00;;;2.60;99.90;;;;;;4977136;28;20710;-85
2022/01/08 03:15:05;;;;;;;3.95;1.10;;;2.70;99.90;;;;;;4976517;28;20565;-83
2022/01/08 03:17:30;;;;;;;1.50;1.40;;;2.70;99.90;;;;;;4974393;28;20183;-83
2022/01/08 03:20:03;;;;;;;2.13;0.90;;;;;;;;;;4978285;28;20191;-83
2022/01/08 03:22:29;;;;;;;4.10;1.30;;;2.60;99.90;;;;;;4970196;28;20233;-83
2022/01/08 03:24:55;;;;;;;4.50;1.40;;;2.50;99.90;;;;;;4973949;28;20207;-82
2022/01/08 03:27:20;;;;;;;4.10;1.47;;;2.40;99.90;;;;;;4972717;28;20287;-87
2022/01/08 03:29:46;;;;;;;1.20;1.00;;;;;;;;;;4972640;28;20208;-83
2022/01/08 03:32:12;;;;;;;1.50;1.20;;;2.30;99.90;;;;;;4972061;28;20232;-84
2022/01/08 03:34:38;;;;;;;1.90;1.17;;;;;;;;;;4973056;28;20248;-81
2022/01/08 03:37:03;;;;;;;3.33;1.70;;;2.20;99.90;;;;;;4972739;28;20198;-85
2022/01/08 03:39:29;;;;;;;5.40;1.80;;;2.10;99.90;;;;;;4973305;28;20475;-85
2022/01/08 03:41:55;;;;;;;1.80;1.53;;;2.10;99.90;;;;;;4973553;28;20188;-85
2022/01/08 03:44:20;;;;;;;3.90;2.00;;;2.10;99.90;;;;;;4973446;28;20546;-83
2022/01/08 03:46:46;;;;;;;2.53;1.43;;;2.10;99.90;;;;;;4972270;28;20245;-84
2022/01/08 03:49:25;;;;;;;3.03;1.90;;;;;;;;;;4972687;28;20180;-83
2022/01/08 03:51:55;;;;;;;2.33;1.85;;;2.00;99.90;;;;;;4969591;28;20494;-84
2022/01/08 03:54:22;;;;;;;1.67;1.40;;;1.90;99.90;;;;;;4969556;28;20261;-84
2022/01/08 03:56:49;;;;;;;1.65;1.15;;;1.90;99.90;;;;;;4987316;28;20347;-84
2022/01/08 03:59:15;;;;;;;2.50;1.73;;;1.90;99.90;;;;;;4975919;28;20171;-82
2022/01/08 04:01:41;;;;;;;4.43;1.50;;;;;;;;;;4970234;28;20230;-84
2022/01/08 04:04:07;;;;;;;2.13;1.93;;;;;;;;;;4970585;28;20212;-85
2022/01/08 04:06:36;;;;;;;1.65;1.55;;;1.70;99.90;;;;;;4961206;28;20474;-83
2022/01/08 04:09:02;;;;;;;2.42;2.22;;;2.00;99.90;;;;;;4971020;28;20188;-84
2022/01/08 04:11:27;;;;;;;1.35;1.10;;;1.60;99.90;;;;;;4968135;28;20211;-84
2022/01/08 04:13:55;;;;;;;2.20;1.93;;;1.60;99.90;;;;;;4970241;28;20196;-82
2022/01/08 04:16:28;;;;;;;2.67;2.30;;;1.60;99.90;;;;;;4974305;28;20248;-85
2022/01/08 04:18:54;;;;;;;1.50;1.40;;;1.60;99.90;;;;;;4978441;28;20213;-83
2022/01/08 04:23:53;;;;;;;2.08;1.20;;;1.60;99.90;;;;;;4967282;28;21101;-84
2022/01/08 04:26:21;;;;;;;6.65;3.00;;;1.60;99.90;;;;;;4962704;28;20187;-85
2022/01/08 04:28:47;;;;;;;2.25;1.85;;;1.60;99.90;;;;;;4966340;28;20184;-83
2022/01/08 04:31:14;;;;;;;1.60;1.50;;;1.60;99.90;;;;;;4968844;28;20329;-83
2022/01/08 04:33:39;;;;;;;1.30;1.20;;;3.20;99.90;;;;;;4971379;28;20202;-83
2022/01/08 04:36:05;;;;;;;1.30;1.20;;;;;;;;;;4966347;28;20596;-84
2022/01/08 04:38:32;;;;;;;4.43;2.00;;;;;;;;;;4967360;28;20179;-84
2022/01/08 04:40:58;;;;;;;1.48;1.38;;;1.70;99.90;;;;;;4959372;28;20434;-83
2022/01/08 04:43:24;;;;;;;1.70;1.40;;;1.50;99.90;;;;;;4968910;28;20211;-84
2022/01/08 04:45:51;;;;;;;2.47;1.30;;;1.70;99.90;;;;;;4973062;28;20805;-85
2022/01/08 04:48:17;;;;;;;1.55;1.38;;;1.70;99.90;;;;;;4970253;28;20288;-85
2022/01/08 04:50:43;;;;;;;1.00;1.00;;;;;;;;;;4972102;28;20208;-85
2022/01/08 04:53:09;;;;;;;0.80;0.60;;;;;;;;;;4967178;28;20196;-86
2022/01/08 04:55:34;;;;;;;1.40;0.63;;;1.90;99.90;;;;;;4968258;28;20172;-83
2022/01/08 04:58:00;;;;;;;1.37;0.60;;;;;;;;;;4964843;28;21462;-85
2022/01/08 05:00:26;;;;;;;2.10;0.40;;;2.10;99.90;;;;;;4971461;28;20183;-84
2022/01/08 05:02:51;;;;;;;1.13;0.50;;;2.10;99.90;;;;;;4967003;28;20914;-85
2022/01/08 05:05:17;;;;;;;0.70;0.50;;;2.10;99.90;;;;;;4969066;28;20184;-85
2022/01/08 05:07:43;;;;;;;0.93;0.60;;;2.20;99.90;;;;;;4968078;28;20199;-85
2022/01/08 05:10:09;;;;;;;0.30;0.30;;;;;;;;;;4969882;28;20537;-86
2022/01/08 05:12:35;;;;;;;0.40;0.40;;;2.20;99.90;;;;;;4963229;28;20207;-85
2022/01/08 05:15:02;;;;;;;0.30;0.30;;;2.20;99.90;;;;;;4967381;28;20645;-85
2022/01/08 05:17:32;;;;;;;0.50;0.50;;;2.20;99.90;;;;;;4972835;28;20187;-84
2022/01/08 05:20:01;;;;;;;0.80;0.60;;;2.20;99.90;;;;;;4970919;28;20588;-84
2022/01/08 05:22:29;;;;;;;0.80;0.80;;;2.20;99.90;;;;;;4971141;28;20179;-84
2022/01/08 05:24:56;;;;;;;1.15;0.55;;;2.10;99.90;;;;;;4966512;28;20200;-84
2022/01/08 05:27:23;;;;;;;0.40;0.40;;;2.20;99.90;;;;;;4967884;28;20188;-83
2022/01/08 05:29:51;;;;;;;0.30;0.30;;;2.20;99.90;;;;;;4972372;28;20958;-84
2022/01/08 05:32:17;;;;;;;0.50;0.50;;;2.20;99.90;;;;;;4969579;28;20223;-83
2022/01/08 05:34:49;;;;;;;0.40;0.40;;;2.10;99.90;;;;;;4967496;28;20199;-83
2022/01/08 05:37:16;;;;;;;0.40;0.32;;;2.20;99.90;;;;;;4973052;28;20651;-83
2022/01/08 05:39:42;;;;;;;1.60;0.50;;;2.20;99.90;;;;;;4971335;28;20183;-83
2022/01/08 05:42:08;;;;;;;0.83;0.70;;;2.10;99.90;;;;;;4957587;28;20180;-84
2022/01/08 05:44:34;;;;;;;0.85;0.65;;;3.20;99.90;;;;;;4966354;28;20723;-84
2022/01/08 05:47:00;;;;;;;0.60;0.60;;;2.10;99.90;;;;;;4970782;28;20180;-82
2022/01/08 05:49:26;;;;;;;1.33;1.10;;;;;;;;;;4970780;28;20206;-84
2022/01/08 05:51:51;;;;;;;1.23;0.75;;;1.90;99.90;;;;;;4971411;28;20463;-85
2022/01/08 05:54:17;;;;;;;2.07;1.10;;;;;;;;;;4969894;28;20248;-83
2022/01/08 05:56:43;;;;;;;10.93;1.47;;;1.70;99.90;;;;;;4966448;28;20697;-86
2022/01/08 05:59:09;;;;;;;0.70;0.70;;;;;;;;;;4966546;28;20529;-84
2022/01/08 06:01:35;;;;;;;0.57;0.57;;;;;;;;;;4965879;28;20223;-84
2022/01/08 06:04:01;;;;;;;1.03;0.90;;;1.50;99.90;;;;;;4968767;28;21090;-85
2022/01/08 06:06:27;;;;;;;1.02;0.93;;;1.50;99.90;;;;;;4965015;28;20431;-86
2022/01/08 06:08:53;;;;;;;0.93;0.93;;;1.40;99.90;;;;;;4965921;28;20187;-86
2022/01/08 06:11:19;;;;;;;0.83;0.83;;;;;;;;;;4967854;28;20520;-83
2022/01/08 06:13:44;;;;;;;0.80;0.80;;;1.30;99.90;;;;;;4970207;28;20200;-84
2022/01/08 06:16:10;;;;;;;1.03;1.00;;;1.30;99.90;;;;;;4970534;28;20423;-84
2022/01/08 06:18:36;;;;;;;1.30;1.20;;;;;;;;;;4973896;28;20187;-85
2022/01/08 06:21:02;;;;;;;1.67;0.90;;;1.20;99.90;;;;;;4976108;28;20601;-82
2022/01/08 06:23:28;;;;;;;4.25;1.55;;;1.20;99.90;;;;;;4972059;28;20204;-84
2022/01/08 06:25:54;;;;;;;2.07;1.20;;;1.40;99.90;;;;;;4971982;28;20192;-83
2022/01/08 06:28:20;;;;;;;2.10;1.87;;;1.20;99.90;;;;;;4965676;28;20549;-83
2022/01/08 06:30:47;;;;;;;2.23;1.90;;;1.20;99.90;;;;;;4973416;28;20677;-85
2022/01/08 06:33:13;;;;;;;3.80;1.83;;;1.20;99.90;;;;;;4971298;28;20250;-85
2022/01/08 06:35:38;;;;;;;2.35;1.55;;;1.20;99.90;;;;;;4974250;28;20263;-84
2022/01/08 06:38:04;;;;;;;3.33;2.13;;;1.20;99.90;;;;;;4970193;28;21098;-84
2022/01/08 06:40:29;;;;;;;1.37;1.17;;;1.20;99.90;;;;;;4969924;28;20179;-82
2022/01/08 06:42:55;;;;;;;1.97;1.63;;;1.30;99.90;;;;;;4969357;28;20180;-83
2022/01/08 06:45:20;;;;;;;0.97;0.97;;;1.30;99.90;;;;;;4971511;28;20248;-83
2022/01/08 06:47:46;;;;;;;2.20;1.10;;;1.30;99.90;;;;;;4969734;28;20180;-82
2022/01/08 06:50:12;;;;;;;1.33;1.23;;;1.30;99.90;;;;;;4971532;28;20187;-81
2022/01/08 06:52:38;;;;;;;2.35;1.33;;;1.30;99.90;;;;;;4972699;28;20747;-84
2022/01/08 06:55:05;;;;;;;2.90;1.42;;;1.20;99.90;;;;;;4971550;28;20200;-82
2022/01/08 06:57:30;;;;;;;1.60;1.15;;;1.20;99.90;;;;;;4970218;28;20183;-80
2022/01/08 06:59:56;;;;;;;3.30;1.93;;;1.20;99.90;;;;;;4970073;28;20188;-82
2022/01/08 07:02:21;;;;;;;1.50;1.30;;;1.20;99.90;;;;;;4968782;28;20196;-86
2022/01/08 07:04:47;;;;;;;2.30;2.10;;;1.20;99.90;;;;;;4971744;28;20206;-86
2022/01/08 07:07:13;;;;;;;5.33;3.03;;;1.20;99.90;;;;;;4972646;28;20668;-82
2022/01/08 07:09:41;;;;;;;4.37;2.30;;;1.20;99.90;;;;;;4971157;28;20645;-83
2022/01/08 07:12:07;;;;;;;2.72;1.75;;;1.20;99.90;;;;;;4967044;28;20220;-82
2022/01/08 07:14:32;;;;;;;3.40;2.43;;;1.20;99.90;;;;;;4969541;28;20795;-82
2022/01/08 07:16:58;;;;;;;2.30;1.60;;;1.20;99.90;;;;;;4978989;28;20168;-82
2022/01/08 07:19:23;;;;;;;4.87;2.43;;;1.20;99.90;;;;;;4966185;28;20194;-83
2022/01/08 07:21:49;;;;;;;4.03;2.50;;;1.20;99.90;;;;;;4969790;28;20196;-84
2022/01/08 07:24:15;;;;;;;3.37;2.07;;;1.30;99.90;;;;;;4967002;28;20735;-80
2022/01/08 07:26:40;;;;;;;3.97;2.20;;;1.30;99.90;;;;;;4967737;28;20753;-84
2022/01/08 07:29:06;;;;;;;4.07;3.00;;;1.30;99.90;;;;;;4962140;28;20223;-81
2022/01/08 07:31:31;;;;;;;4.73;3.40;;;1.20;99.90;;;;;;4969040;28;20210;-82
2022/01/08 07:33:57;;;;;;;5.40;3.30;;;1.30;99.90;;;;;;4968874;28;20208;-81
2022/01/08 07:36:23;;;;;;;4.67;2.40;;;1.30;99.90;;;;;;4969070;28;20184;-82
2022/01/08 07:38:48;;;;;;;7.70;3.70;;;1.30;99.90;;;;;;4971533;28;20176;-80
2022/01/08 07:41:14;;;;;;;4.50;2.30;;;1.20;99.90;;;;;;4971778;28;20237;-81
2022/01/08 07:43:40;;;;;;;1.87;1.53;;;;;;;;;;4968455;28;20211;-80
2022/01/08 07:46:06;;;;;;;5.15;3.00;;;1.20;99.90;;;;;;4969776;28;20440;-81
2022/01/08 07:48:35;;;;;;;5.37;2.57;;;1.20;99.90;;;;;;4969597;28;20381;-82
2022/01/08 07:51:01;;;;;;;6.32;3.35;;;;;;;;;;4969074;28;20246;-83
2022/01/08 07:53:27;;;;;;;7.30;3.55;;;1.30;99.90;;;;;;4969914;28;20207;-85
2022/01/08 07:55:52;;;;;;;5.43;3.20;;;1.30;99.90;;;;;;4971643;28;20176;-84
2022/01/08 07:58:21;;;;;;;5.90;4.00;;;1.30;99.90;;;;;;4970351;28;20459;-84
2022/01/08 08:00:55;;;;;;;5.07;2.75;;;1.30;99.90;;;;;;4987028;28;20179;-84
2022/01/08 08:03:21;;;;;;;2.35;1.85;;;1.40;99.90;;;;;;4968085;28;20617;-82
2022/01/08 08:05:47;;;;;;;2.13;2.00;;;1.40;99.90;;;;;;4968783;28;20184;-84
2022/01/08 08:08:17;;;;;;;5.53;2.75;;;1.50;99.90;;;;;;4969259;28;20214;-83
2022/01/08 08:10:44;;;;;;;2.70;1.38;;;1.60;99.90;;;;;;4953936;28;20255;-83
2022/01/08 08:13:09;;;;;;;3.60;2.20;;;1.70;99.90;;;;;;4968794;28;20211;-84
2022/01/08 08:15:38;;;;;;;3.27;2.00;;;1.70;99.90;;;;;;4970144;28;20226;-83
2022/01/08 08:18:03;;;;;;;3.97;3.22;;;1.70;99.90;;;;;;4969391;28;20215;-83
2022/01/08 08:20:29;;;;;;;3.57;2.13;;;;;;;;;;4969870;28;20196;-82
2022/01/08 08:22:55;;;;;;;3.10;2.80;;;1.80;99.90;;;;;;4971463;28;20184;-84
2022/01/08 08:25:20;;;;;;;4.00;1.93;;;1.80;99.90;;;;;;4973329;28;20434;-85
2022/01/08 08:27:46;;;;;;;2.50;1.53;;;1.80;99.90;;;;;;4969821;28;20698;-84
2022/01/08 08:30:12;;;;;;;2.55;1.30;;;1.80;99.90;;;;;;4974571;28;20180;-82
2022/01/08 08:32:38;;;;;;;1.53;1.07;;;;;;;;;;4970049;28;20661;-85
2022/01/08 08:35:05;;;;;;;3.80;1.73;;;1.90;99.90;;;;;;4969311;28;20199;-86
2022/01/08 08:37:33;;;;;;;3.00;1.45;;;1.90;99.90;;;;;;4973347;28;20187;-84
2022/01/08 08:39:59;;;;;;;1.00;0.90;;;2.00;99.90;;;;;;4966463;28;20183;-85
2022/01/08 08:42:24;;;;;;;2.97;1.47;;;2.00;99.90;;;;;;4968990;28;20191;-83
2022/01/08 08:44:50;;;;;;;1.17;0.87;;;2.10;99.90;;;;;;4966033;28;20238;-82
2022/01/08 08:47:15;;;;;;;2.90;1.30;;;2.10;99.90;;;;;;4971847;28;20214;-84
2022/01/08 08:49:41;;;;;;;2.10;1.20;;;2.10;99.90;;;;;;4968481;28;20238;-83
2022/01/08 08:52:07;;;;;;;1.50;1.10;;;2.20;99.90;;;;;;4971183;28;20195;-83
2022/01/08 08:54:32;;;;;;;3.00;2.20;;;2.20;99.90;;;;;;4975852;28;20215;-82
2022/01/08 08:56:58;;;;;;;6.60;1.57;;;2.30;99.90;;;;;;4971993;28;20263;-82
2022/01/08 08:59:24;;;;;;;2.20;1.50;;;2.30;99.90;;;;;;4988909;28;20184;-83
2022/01/08 09:01:50;;;;;;;2.03;1.30;;;2.30;99.90;;;;;;4975672;28;20436;-85
2022/01/08 09:04:15;;;;;;;3.47;1.90;;;2.30;99.90;;;;;;4972725;28;20196;-84
2022/01/08 09:06:41;;;;;;;4.13;1.57;;;2.30;99.90;;;;;;4972198;28;20439;-83
2022/01/08 09:09:07;;;;;;;3.83;1.73;;;2.30;99.90;;;;;;4972115;28;20172;-84
2022/01/08 09:11:34;;;;;;;1.92;0.90;;;2.30;99.90;;;;;;4972036;28;20192;-83
2022/01/08 09:14:00;;;;;;;6.18;1.15;;;2.20;99.90;;;;;;4982053;28;20191;-85
2022/01/08 09:16:25;;;;;;;2.90;1.70;;;2.20;99.90;;;;;;4972685;28;20179;-84
2022/01/08 09:18:51;;;;;;;2.10;1.20;;;;;;;;;;4970938;28;20249;-84
2022/01/08 09:21:17;;;;;;;3.15;2.00;;;2.20;99.90;;;;;;4971715;28;20180;-83
2022/01/08 09:23:43;;;;;;;1.77;1.33;;;2.20;99.90;;;;;;4972185;28;20219;-82
2022/01/08 09:26:09;;;;;;;2.75;1.65;;;2.20;99.90;;;;;;4969116;28;20443;-83
2022/01/08 09:28:34;;;;;;;2.57;1.73;;;2.30;99.90;;;;;;4962142;28;20184;-83
2022/01/08 09:31:01;;;;;;;7.80;1.87;;;2.40;99.90;;;;;;4968272;28;20623;-84
2022/01/08 09:33:27;;;;;;;2.40;1.33;;;2.30;99.90;;;;;;4966887;28;20191;-81
2022/01/08 09:35:53;;;;;;;5.43;1.80;;;2.30;99.90;;;;;;4964911;28;20194;-84
2022/01/08 09:38:19;;;;;;;3.53;1.97;;;2.30;99.90;;;;;;4969752;28;20225;-82
2022/01/08 09:40:44;;;;;;;5.43;2.70;;;2.30;99.90;;;;;;4969598;28;20435;-85
2022/01/08 09:43:10;;;;;;;2.73;1.67;;;2.40;99.90;;;;;;4965556;28;20884;-83
2022/01/08 09:45:35;;;;;;;7.07;1.70;;;2.30;99.90;;;;;;4967502;28;20188;-82
2022/01/08 09:48:01;;;;;;;14.07;2.43;;;2.20;99.90;;;;;;4967570;28;20180;-82
2022/01/08 09:50:27;;;;;;;2.27;2.07;;;2.10;99.90;;;;;;4966703;28;20230;-83
2022/01/08 09:52:57;;;;;;;10.03;2.87;;;2.30;99.90;;;;;;4965587;28;20225;-83
2022/01/08 09:55:25;;;;;;;3.70;2.03;;;2.30;99.90;;;;;;4975224;28;20181;-82
2022/01/08 09:57:51;;;;;;;5.70;2.40;;;2.30;99.90;;;;;;4971718;28;20191;-81
2022/01/08 10:00:17;;;;;;;2.40;1.88;;;2.30;99.90;;;;;;4968636;28;20187;-83
2022/01/08 10:02:44;;;;;;;4.57;2.47;;;2.30;99.90;;;;;;4965371;28;20314;-83
2022/01/08 10:05:15;;;;;;;5.05;1.50;;;2.20;99.90;;;;;;4969265;28;20212;-84
2022/01/08 10:07:42;;;;;;;3.75;2.30;;;2.10;99.90;;;;;;4967263;28;20190;-83
2022/01/08 10:10:15;;;;;;;7.07;2.45;;;2.10;99.90;;;;;;4968411;28;20211;-83
2022/01/08 10:12:52;;;;;;;10.88;2.47;;;2.10;99.90;;;;;;4966132;28;20275;-83
2022/01/08 10:18:27;;;;;;;3.45;1.80;;;2.10;99.90;;;;;;4963598;28;20777;-82
2022/01/08 10:20:55;;;;;;;9.13;1.77;;;2.20;99.90;;;;;;4969965;28;20176;-82
2022/01/08 10:23:25;;;;;;;8.13;2.90;;;2.30;99.90;;;;;;4967214;28;20685;-83
2022/01/08 10:25:57;;;;;;;6.07;1.50;;;2.40;99.90;;;;;;4965311;28;20264;-83
2022/01/08 10:28:42;;;;;;;7.47;2.65;;;2.40;99.90;;;;;;4971292;28;20188;-85
2022/01/08 10:31:23;;;;;;;7.93;2.80;;;2.40;99.90;;;;;;4966997;28;20204;-82
2022/01/08 10:34:02;;;;;;;4.10;1.67;;;2.40;99.90;;;;;;4954711;28;20215;-82
2022/01/08 10:36:29;;;;;;;5.97;2.65;;;2.40;99.90;;;;;;4967843;28;20180;-83
2022/01/08 10:38:56;;;;;;;4.25;2.38;;;2.50;99.90;;;;;;4964072;28;20181;-83
2022/01/08 10:41:23;;;;;;;5.50;3.53;;;2.60;99.90;;;;;;4969005;28;20188;-82
2022/01/08 10:44:11;;;;;;;6.40;2.40;;;2.60;99.90;;;;;;4966857;28;20237;-86
2022/01/08 10:46:37;;;;;;;6.55;2.95;;;2.60;99.90;;;;;;4966682;28;20215;-84
2022/01/08 10:49:04;;;;;;;6.38;2.75;;;2.90;99.90;;;;;;4967281;28;20240;-83
2022/01/08 10:51:38;;;;;;;4.57;2.15;;;3.00;99.90;;;;;;4966514;28;20292;-85
2022/01/08 10:54:15;;;;;;;5.03;2.20;;;3.10;99.90;;;;;;4984948;28;20238;-84
2022/01/08 10:56:46;;;;;;;5.80;2.92;;;3.60;99.90;;;;;;4966577;28;20253;-86
2022/01/08 10:59:15;;;;;;;3.50;1.60;;;3.50;99.90;;;;;;4965270;28;20180;-82
2022/01/08 11:01:57;;;;;;;5.47;1.88;;;3.30;99.90;;;;;;4969825;28;20249;-83
2022/01/08 11:04:41;;;;;;;2.90;1.80;;;3.10;99.90;;;;;;4986861;28;20234;-83
2022/01/08 11:07:11;;;;;;;12.93;2.28;;;3.30;99.90;;;;;;4968482;28;20524;-82
2022/01/08 11:09:40;;;;;;;4.55;1.85;;;3.30;99.90;;;;;;4959780;28;20179;-83
2022/01/08 11:12:08;;;;;;;3.38;1.50;;;3.40;99.90;;;;;;4984994;28;20228;-82
2022/01/08 11:15:00;;;;;;;1.80;1.13;;;3.30;99.90;;;;;;4965676;28;20555;-84
2022/01/08 11:17:33;;;;;;;3.03;1.25;;;3.30;99.90;;;;;;4958599;28;20576;-84
2022/01/08 11:20:09;;;;;;;3.92;1.85;;;3.20;99.90;;;;;;4966401;28;20550;-80
2022/01/08 11:22:37;;;;;;;2.78;1.10;;;3.20;99.90;;;;;;4954873;28;20292;-84
2022/01/08 11:25:14;;;;;;;3.17;1.40;;;3.10;99.90;;;;;;4977921;28;20208;-83
2022/01/08 11:27:58;;;;;;;3.00;1.25;;;3.00;99.90;;;;;;4981452;28;20192;-85
2022/01/08 11:30:26;;;;;;;3.17;1.30;;;3.10;99.90;;;;;;4963396;28;20314;-84
2022/01/08 11:32:56;;;;;;;6.38;1.20;;;3.00;99.90;;;;;;4965008;28;20308;-84
2022/01/08 11:35:24;;;;;;;3.25;1.70;;;3.00;99.90;;;;;;4963681;28;20184;-83
2022/01/08 11:37:51;;;;;;;2.55;1.25;;;3.20;99.90;;;;;;4967219;28;20179;-81
2022/01/08 11:40:20;;;;;;;11.73;1.50;;;3.30;99.90;;;;;;4966830;28;20207;-82
2022/01/08 11:42:46;;;;;;;3.33;2.10;;;3.30;99.90;;;;;;4968945;28;20242;-84
2022/01/08 11:45:16;;;;;;;6.00;2.72;;;3.30;99.90;;;;;;4974086;28;20188;-85
2022/01/08 11:47:45;;;;;;;4.35;1.83;;;3.40;99.90;;;;;;4964780;28;20692;-83
2022/01/08 11:50:12;;;;;;;2.60;1.30;;;3.40;99.90;;;;;;4967906;28;20191;-83
2022/01/08 11:52:37;;;;;;;11.18;1.55;;;3.30;99.90;;;;;;4963618;28;20215;-81
2022/01/08 11:55:03;;;;;;;1.50;1.17;;;3.50;99.90;;;;;;4967852;28;20276;-84
2022/01/08 11:57:30;;;;;;;4.60;1.53;;;3.70;99.90;;;;;;4969009;28;20188;-84
2022/01/08 12:00:00;;;;;;;2.45;1.55;;;3.60;99.90;;;;;;4969431;28;21253;-85
2022/01/08 12:02:41;;;;;;;3.05;1.58;;;3.70;99.90;;;;;;4969385;28;20218;-85
2022/01/08 12:05:09;;;;;;;4.55;1.83;;;3.90;99.90;;;;;;4970689;28;20199;-84
2022/01/08 12:07:43;;;;;;;3.50;1.70;;;4.00;99.90;;;;;;4966865;28;20235;-84
2022/01/08 12:10:16;;;;;;;2.75;1.25;;;4.20;99.90;;;;;;4965408;28;20184;-84
2022/01/08 12:12:47;;;;;;;5.57;2.00;;;4.10;99.90;;;;;;4963151;28;20249;-84
2022/01/08 12:15:14;;;;;;;1.30;1.05;;;4.00;99.90;;;;;;4971399;28;20237;-85
2022/01/08 12:17:57;;;;;;;3.22;1.20;;;3.90;99.90;;;;;;4969282;28;20180;-84
2022/01/08 12:20:54;;;;;;;5.13;1.60;;;3.90;99.90;;;;;;4965992;28;20196;-83
2022/01/08 12:23:38;;;;;;;3.30;1.60;;;4.40;99.90;;;;;;4967566;28;20200;-82
2022/01/08 12:26:24;;;;;;;1.20;1.10;;;4.30;99.90;;;;;;4966043;28;20180;-82
2022/01/08 12:28:57;;;;;;;2.05;0.90;;;4.00;99.90;;;;;;4975537;28;20213;-83
2022/01/08 12:31:25;;;;;;;5.57;1.35;;;3.80;99.90;;;;;;4970669;28;20203;-84
2022/01/08 12:34:17;;;;;;;1.17;0.93;;;3.70;99.90;;;;;;4969226;28;20200;-82
2022/01/08 12:36:54;;;;;;;2.72;1.48;;;3.70;99.90;;;;;;4968920;28;20185;-82
2022/01/08 12:39:43;;;;;;;2.08;1.17;;;3.70;99.90;;;;;;4965266;28;20192;-84
2022/01/08 12:42:23;;;;;;;2.28;1.00;;;3.80;99.90;;;;;;4966477;28;20186;-78
2022/01/08 12:45:12;;;;;;;4.40;1.85;;;3.90;99.90;;;;;;4974087;28;20242;-81
2022/01/08 12:47:42;;;;;;;3.63;0.90;;;4.00;99.90;;;;;;4974058;28;20245;-80
2022/01/08 12:50:18;;;;;;;1.88;1.27;;;4.10;99.90;;;;;;4956647;28;20188;-81
2022/01/08 12:53:05;;;;;;;1.73;0.98;;;4.30;99.90;;;;;;4967929;28;20264;-80
2022/01/08 12:55:31;;;;;;;2.63;1.27;;;4.40;99.90;;;;;;4969492;28;20523;-80
2022/01/08 12:57:57;;;;;;;4.13;1.10;;;4.40;99.90;;;;;;4967105;28;20187;-81
2022/01/08 13:00:24;;;;;;;3.30;0.85;;;4.40;99.90;;;;;;4971301;28;20667;-80
2022/01/08 13:02:49;;;;;;;1.95;1.00;;;4.30;99.90;;;;;;4970461;28;20262;-80
2022/01/08 13:05:15;;;;;;;4.23;1.60;;;4.30;99.90;;;;;;4970787;28;20820;-81
2022/01/08 13:07:51;;;;;;;2.27;1.90;;;4.30;99.90;;;;;;4972530;28;20716;-80
2022/01/08 13:10:18;;;;;;;8.95;1.75;;;4.20;99.90;;;;;;4969147;28;21076;-82
2022/01/08 13:13:01;;;;;;;1.17;0.90;;;4.20;99.90;;;;;;4960274;28;20372;-80
2022/01/08 13:15:33;;;;;;;4.25;1.10;;;4.20;99.90;;;;;;4967015;28;20180;-80
2022/01/08 13:18:21;;;;;;;8.45;1.92;;;4.10;99.90;;;;;;4982312;28;20201;-80
2022/01/08 13:20:59;;;;;;;1.48;1.20;;;4.10;99.90;;;;;;4962876;28;20258;-82
2022/01/08 13:23:24;;;;;;;4.30;1.40;;;4.00;99.90;;;;;;4968281;28;20282;-79
2022/01/08 13:25:55;;;;;;;1.40;0.70;;;4.10;99.90;;;;;;4967692;28;20263;-80
2022/01/08 13:28:22;;;;;;;1.50;1.10;;;4.10;99.90;;;;;;4957694;28;20175;-81
2022/01/08 13:30:50;;;;;;;5.65;1.35;;;4.00;99.90;;;;;;4955493;28;20186;-81